Time;durP1;ratioP1;P1;durP2;ratioP2;P2;SDS_P1;SDS_P2;PMS_P1;PMS_P2;Temp;Humidity;BMP_temperature;BMP_pressure;BME280_temperature;BME280_humidity;BME280_pressure;Samples;Min_cycle;Max_cycle;Signal;HPM_P1;HPM_P2
2021/12/14 04:35:11;;;;;;;10.43;8.03;;;;;;;10.95;59.39;99900.94;6716789;29;20927;-88
2021/12/14 04:39:29;;;;;;;11.67;8.00;;;;;;;10.88;59.59;99904.53;6754484;29;20241;-86
2021/12/14 05:00:28;;;;;;;14.60;9.37;;;;;;;10.36;61.36;99888.19;6686080;29;20299;-89
2021/12/14 05:07:58;;;;;;;11.73;8.50;;;;;;;10.39;61.09;99890.53;6767068;29;20301;-86
2021/12/14 05:12:14;;;;;;;11.40;8.17;;;;;;;10.41;60.56;99856.16;6772781;29;20235;-87
2021/12/14 05:20:04;;;;;;;10.13;7.60;;;;;;;9.87;62.14;99848.16;6694068;29;20205;-88
2021/12/14 05:23:29;;;;;;;9.80;8.20;;;;;;;9.87;61.50;99835.53;6690268;29;20245;-88
2021/12/14 05:27:02;;;;;;;13.50;9.53;;;;;;;9.99;62.55;99879.09;6689944;29;20230;-88
2021/12/14 05:30:32;;;;;;;22.83;13.80;;;;;;;10.25;61.74;99887.75;6736073;29;20221;-88
2021/12/14 05:33:57;;;;;;;17.73;12.03;;;;;;;10.30;61.24;99896.13;6796269;29;20222;-86
2021/12/14 06:11:09;;;;;;;8.23;6.17;;;;;;;10.18;60.21;99884.94;6696396;29;20227;-87
2021/12/14 06:18:47;;;;;;;7.60;6.00;;;;;;;10.35;59.37;99861.41;6689202;29;20279;-88
2021/12/14 06:22:14;;;;;;;9.63;7.17;;;;;;;10.39;59.70;99874.34;6695699;29;20756;-87
2021/12/14 06:25:38;;;;;;;9.83;7.50;;;;;;;10.38;58.93;99859.19;6714309;29;20213;-87
2021/12/14 07:00:41;;;;;;;9.50;6.87;;;;;;;9.76;60.25;99872.78;6792285;29;20294;-89
2021/12/14 07:04:48;;;;;;;12.23;8.57;;;;;;;9.50;61.32;99856.88;6801646;29;20210;-85
2021/12/14 07:17:01;;;;;;;12.63;8.67;;;;;;;9.31;62.79;99824.97;6726500;29;20270;-88
2021/12/14 07:47:34;;;;;;;7.27;5.77;;;;;;;9.31;60.61;99872.56;6774276;29;20622;-86
2021/12/14 08:38:43;;;;;;;8.80;6.30;;;;;;;9.94;58.99;99909.25;6670784;29;20250;-87
2021/12/14 08:46:55;;;;;;;;;;;;;;;;;;;;;
2021/12/14 08:59:07;;;;;;;6.37;5.50;;;;;;;10.33;56.67;99906.59;6775776;29;20230;-86
2021/12/14 09:02:31;;;;;;;6.07;5.47;;;;;;;10.69;55.95;99900.44;6826259;29;20335;-86
2021/12/14 09:05:53;;;;;;;6.43;5.80;;;;;;;10.77;56.57;99896.84;6856757;28;20217;-86
2021/12/14 09:09:18;;;;;;;9.23;5.67;;;;;;;10.69;56.87;99857.28;6934005;28;20680;-86
2021/12/14 09:13:13;;;;;;;6.30;5.70;;;;;;;10.88;55.41;99885.63;6932679;28;20250;-86
2021/12/14 09:16:35;;;;;;;7.13;6.17;;;;;;;10.44;55.91;99833.34;6889816;28;20448;-86
2021/12/14 09:24:32;;;;;;;10.90;8.67;;;;;;;11.10;55.57;99887.47;6821447;29;20293;-86
2021/12/14 09:27:55;;;;;;;7.90;7.00;;;;;;;11.13;55.25;99876.31;6826436;29;20222;-87
2021/12/14 09:31:20;;;;;;;9.30;7.67;;;;;;;11.25;54.98;99886.50;6819497;29;20233;-86
2021/12/14 09:34:42;;;;;;;11.73;8.27;;;;;;;10.90;56.09;99879.03;6814741;29;20612;-87
2021/12/14 09:38:05;;;;;;;11.53;7.47;;;;;;;11.20;54.80;99850.25;6816350;29;20227;-86
2021/12/14 09:41:33;;;;;;;8.50;7.00;;;;;;;11.01;55.54;99911.00;6820511;29;20338;-85
2021/12/14 09:44:58;;;;;;;9.07;7.37;;;;;;;11.67;55.31;99913.78;6821582;29;20312;-85
2021/12/14 09:48:25;;;;;;;9.10;6.70;;;;;;;12.17;53.13;99902.19;6820346;29;20345;-87
2021/12/14 09:51:52;;;;;;;9.63;6.77;;;;;;;12.24;52.61;99897.72;6825452;29;20753;-86
2021/12/14 09:55:21;;;;;;;8.43;6.40;;;;;;;12.35;52.60;99868.34;6828295;29;20289;-86
2021/12/14 09:58:47;;;;;;;8.10;6.43;;;;;;;12.42;52.17;99885.47;6828957;28;20252;-87
2021/12/14 10:02:12;;;;;;;8.77;6.53;;;;;;;12.22;52.72;99867.34;6877191;28;20235;-86
2021/12/14 10:05:38;;;;;;;7.10;6.37;;;;;;;12.30;52.35;99864.50;6877631;28;20228;-86
2021/12/14 10:09:05;;;;;;;6.90;5.87;;;;;;;12.52;52.17;99877.84;6888272;28;20204;-89
2021/12/14 10:16:13;;;;;;;6.73;5.77;;;;;;;12.42;52.58;99866.53;6891178;28;20212;-88
2021/12/14 10:20:02;;;;;;;;;;;;;;;;;;;;;
2021/12/14 10:27:34;;;;;;;6.03;5.20;;;;;;;11.56;55.35;99878.25;6861459;28;20208;-88
2021/12/14 10:31:25;;;;;;;7.00;5.93;;;;;;;11.79;54.69;99885.25;6904788;28;20240;-85
2021/12/14 10:34:52;;;;;;;6.57;5.90;;;;;;;11.39;54.54;99806.53;6900686;28;20212;-86
2021/12/14 10:38:22;;;;;;;9.33;7.23;;;;;;;11.85;55.13;99875.56;6916585;28;20592;-90
2021/12/14 10:45:27;;;;;;;9.73;7.63;;;;;;;11.56;56.66;99883.66;6926978;28;20203;-85
2021/12/14 10:49:17;;;;;;;9.13;6.87;;;;;;;11.72;56.30;99878.09;6928196;28;20217;-86
2021/12/14 10:52:43;;;;;;;10.33;6.47;;;;;;;12.24;55.23;99873.38;6931844;28;20234;-86
2021/12/14 10:56:12;;;;;;;7.80;6.47;;;;;;;12.52;53.73;99875.16;6910786;28;20206;-85
2021/12/14 10:59:37;;;;;;;8.57;7.53;;;;;;;11.86;53.98;99807.00;6918866;28;20241;-86
2021/12/14 11:03:03;;;;;;;11.40;7.50;;;;;;;12.05;54.70;99882.09;6906984;28;20229;-85
2021/12/14 11:06:29;;;;;;;7.90;6.93;;;;;;;11.93;54.81;99883.59;6923786;28;20211;-85
2021/12/14 11:09:55;;;;;;;7.70;6.67;;;;;;;11.90;54.83;99859.63;6922513;28;20226;-85
2021/12/14 11:13:17;;;;;;;7.87;6.63;;;;;;;11.63;55.18;99871.94;6921646;28;20235;-86
2021/12/14 11:20:21;;;;;;;7.17;6.47;;;;;;;11.39;55.50;99857.84;6890867;28;20258;-84
2021/12/14 11:23:49;;;;;;;7.30;6.23;;;;;;;11.97;54.68;99871.34;6930360;28;20186;-84
2021/12/14 11:27:19;;;;;;;7.87;6.87;;;;;;;12.22;53.82;99872.75;6911083;28;20216;-84
2021/12/14 11:30:49;;;;;;;7.40;6.67;;;;;;;12.15;53.61;99883.47;6915259;28;20223;-84
2021/12/14 11:34:14;;;;;;;9.53;8.50;;;;;;;12.47;54.13;99869.50;6913787;28;20207;-86
2021/12/14 11:37:38;;;;;;;9.20;7.03;;;;;;;12.16;54.13;99863.50;6931752;28;20215;-86
2021/12/14 11:41:07;;;;;;;7.10;6.40;;;;;;;12.30;53.41;99883.44;6926169;28;20231;-85
2021/12/14 11:44:31;;;;;;;8.43;7.57;;;;;;;12.79;52.92;99884.38;6925960;28;20210;-85
2021/12/14 11:47:58;;;;;;;12.73;8.13;;;;;;;12.83;52.93;99874.84;6907581;28;20210;-84
2021/12/14 11:51:19;;;;;;;18.50;14.30;;;;;;;12.70;52.55;99866.63;6926885;28;20242;-84
2021/12/14 11:54:46;;;;;;;17.43;15.63;;;;;;;12.48;53.79;99851.38;6924993;28;20559;-84
2021/12/14 11:58:30;;;;;;;11.67;10.47;;;;;;;12.59;52.45;99829.25;6899320;28;20247;-86
2021/12/14 12:01:55;;;;;;;8.13;7.33;;;;;;;12.88;53.25;99840.78;6909104;28;20316;-88
2021/12/14 12:05:18;;;;;;;11.57;9.00;;;;;;;12.56;53.58;99832.34;6917121;28;20211;-84
2021/12/14 12:12:26;;;;;;;8.33;6.70;;;;;;;13.16;52.32;99813.75;6944779;28;20224;-85
2021/12/14 12:15:52;;;;;;;7.00;6.37;;;;;;;13.50;49.95;99827.31;6924568;28;20262;-86
2021/12/14 12:19:17;;;;;;;10.80;8.30;;;;;;;12.79;52.58;99835.66;6921161;28;20699;-84
2021/12/14 12:22:41;;;;;;;9.97;7.90;;;;;;;13.14;51.77;99838.31;6915171;28;20228;-85
2021/12/14 12:26:09;;;;;;;9.90;8.90;;;;;;;12.69;53.33;99840.59;6920869;28;20270;-85
2021/12/14 12:29:31;;;;;;;9.77;8.80;;;;;;;13.06;52.41;99848.44;6920833;28;20267;-84
2021/12/14 12:32:55;;;;;;;12.33;10.23;;;;;;;12.56;53.48;99824.22;6912501;28;20238;-84
2021/12/14 12:36:20;;;;;;;13.43;10.70;;;;;;;12.26;54.46;99858.63;6921444;28;20209;-83
2021/12/14 12:39:49;;;;;;;9.87;7.87;;;;;;;12.78;53.84;99832.16;6921323;28;20502;-83
2021/12/14 12:43:23;;;;;;;9.20;7.60;;;;;;;13.41;52.14;99842.91;6920537;28;20230;-82
2021/12/14 12:46:48;;;;;;;7.37;6.67;;;;;;;13.16;52.70;99843.53;6919998;28;20239;-82
2021/12/14 12:50:11;;;;;;;7.80;6.93;;;;;;;12.73;52.45;99791.28;6921722;28;20210;-83
2021/12/14 12:53:32;;;;;;;12.80;7.33;;;;;;;13.17;52.98;99848.75;6921482;28;20631;-85
2021/12/14 12:57:30;;;;;;;10.13;8.23;;;;;;;12.31;53.55;99836.44;6920706;28;20209;-82
2021/12/14 13:00:56;;;;;;;10.80;9.70;;;;;;;12.20;55.47;99832.38;6810451;28;20590;-84
2021/12/14 13:04:38;;;;;;;9.33;8.20;;;;;;;12.20;55.40;99828.81;6915733;28;20218;-82
2021/12/14 13:08:11;;;;;;;11.43;10.03;;;;;;;12.37;55.88;99846.47;6920245;28;20660;-83
2021/12/14 13:11:36;;;;;;;13.93;10.93;;;;;;;12.25;56.22;99848.84;6916085;28;20235;-83
2021/12/14 13:14:57;;;;;;;12.37;10.77;;;;;;;12.38;55.55;99829.22;6916318;28;20214;-84
2021/12/14 13:18:40;;;;;;;13.70;11.27;;;;;;;11.99;56.16;99826.06;6911419;28;20227;-83
2021/12/14 13:22:04;;;;;;;14.47;11.33;;;;;;;11.30;58.00;99845.44;6894444;28;20242;-85
2021/12/14 13:25:35;;;;;;;16.93;10.13;;;;;;;11.66;57.47;99857.22;6916265;28;20222;-84
2021/12/14 13:29:15;;;;;;;15.27;11.03;;;;;;;11.79;57.57;99866.34;6922486;28;20211;-85
2021/12/14 13:32:39;;;;;;;11.37;9.47;;;;;;;11.85;57.33;99851.25;6919284;28;20280;-84
2021/12/14 13:36:01;;;;;;;11.70;9.37;;;;;;;11.35;58.65;99859.22;6919545;28;20615;-85
2021/12/14 13:39:28;;;;;;;9.73;8.73;;;;;;;11.78;58.89;99856.56;6921706;28;20240;-85
2021/12/14 13:43:01;;;;;;;13.43;10.27;;;;;;;12.12;57.22;99850.56;6922685;28;20253;-85
2021/12/14 13:46:22;;;;;;;11.83;10.00;;;;;;;12.17;57.40;99854.34;6922586;28;20231;-84
2021/12/14 13:49:44;;;;;;;12.10;9.73;;;;;;;12.17;56.50;99861.66;6911044;28;20203;-85
2021/12/14 13:53:08;;;;;;;12.10;9.13;;;;;;;11.64;57.88;99854.69;6921980;28;20226;-83
2021/12/14 13:56:33;;;;;;;12.23;9.83;;;;;;;11.72;58.05;99842.97;6920541;28;20206;-83
2021/12/14 13:59:56;;;;;;;12.30;9.67;;;;;;;12.31;56.91;99852.66;6919832;28;20241;-83
2021/12/14 14:03:18;;;;;;;13.17;10.50;;;;;;;12.27;56.10;99845.97;6931640;28;20227;-84
2021/12/14 14:06:41;;;;;;;14.20;11.13;;;;;;;12.01;57.21;99854.59;6922593;28;20206;-84
2021/12/14 14:10:06;;;;;;;14.10;10.43;;;;;;;12.09;56.86;99862.59;6920351;28;20206;-85
2021/12/14 14:13:33;;;;;;;12.97;11.07;;;;;;;11.85;57.35;99843.97;6919457;28;20227;-85
2021/12/14 14:17:01;;;;;;;12.67;10.37;;;;;;;12.19;57.30;99854.16;6918770;28;20278;-85
2021/12/14 14:20:32;;;;;;;12.57;10.73;;;;;;;11.51;58.46;99854.47;6913092;28;20227;-84
2021/12/14 14:23:54;;;;;;;13.97;10.73;;;;;;;11.71;58.34;99865.59;6926097;28;20202;-86
2021/12/14 14:27:35;;;;;;;13.57;10.07;;;;;;;12.21;57.44;99855.66;6922082;28;20226;-84
2021/12/14 14:30:57;;;;;;;14.43;12.03;;;;;;;12.05;57.41;99847.75;6920998;28;20223;-84
2021/12/14 14:34:29;;;;;;;16.87;12.00;;;;;;;12.30;57.39;99867.22;6922923;28;20218;-84
2021/12/14 14:37:51;;;;;;;17.20;11.57;;;;;;;12.19;57.25;99856.88;6927519;28;20206;-86
2021/12/14 14:41:46;;;;;;;14.87;11.67;;;;;;;11.94;57.47;99850.13;6938088;28;20231;-83
2021/12/14 14:45:14;;;;;;;15.10;11.67;;;;;;;12.40;56.97;99882.09;6786175;29;20619;-87
2021/12/14 14:48:36;;;;;;;19.10;13.20;;;;;;;12.46;56.84;99880.50;6786573;29;20716;-83
2021/12/14 14:52:02;;;;;;;17.37;12.27;;;;;;;11.97;57.73;99887.56;6784158;29;20234;-83
2021/12/14 14:55:29;;;;;;;18.40;11.67;;;;;;;11.83;57.93;99873.06;6788217;29;20207;-84
2021/12/14 14:58:51;;;;;;;17.77;12.43;;;;;;;11.76;58.41;99896.44;6789919;29;20762;-83
2021/12/14 15:02:13;;;;;;;18.80;12.03;;;;;;;11.72;59.14;99894.28;6783712;29;20278;-85
2021/12/14 15:05:41;;;;;;;15.87;12.20;;;;;;;11.51;59.09;99897.69;6791859;29;20530;-83
2021/12/14 15:09:09;;;;;;;19.90;12.57;;;;;;;11.94;58.84;99918.53;6790943;29;20337;-85
2021/12/14 15:12:35;;;;;;;15.10;12.73;;;;;;;12.03;58.29;99879.56;6792484;29;20897;-85
2021/12/14 15:16:10;;;;;;;18.77;13.23;;;;;;;11.99;58.40;99916.09;6791662;29;20228;-83
2021/12/14 15:19:37;;;;;;;20.50;13.87;;;;;;;11.53;59.72;99911.03;6872505;28;20243;-85
2021/12/14 15:23:06;;;;;;;19.43;13.93;;;;;;;12.09;58.87;99918.53;6925142;28;20230;-84
2021/12/14 15:26:30;;;;;;;22.67;14.83;;;;;;;11.94;58.95;99929.34;6926746;28;20277;-84
2021/12/14 15:30:10;;;;;;;22.87;15.47;;;;;;;12.12;58.75;99937.06;6927012;28;20206;-85
2021/12/14 15:33:38;;;;;;;24.90;15.30;;;;;;;11.73;59.90;99925.69;6932479;28;20719;-84
2021/12/14 15:37:39;;;;;;;24.00;14.97;;;;;;;11.77;60.23;99937.81;6931941;28;20210;-83
2021/12/14 15:41:08;;;;;;;23.33;15.73;;;;;;;11.60;60.67;99964.16;6952675;28;20234;-84
2021/12/14 15:44:41;;;;;;;23.93;15.90;;;;;;;11.82;59.49;99933.53;6953920;28;20210;-84
2021/12/14 15:48:04;;;;;;;25.47;14.93;;;;;;;11.04;61.02;99966.47;6949200;28;20492;-83
2021/12/14 15:51:28;;;;;;;19.37;14.10;;;;;;;10.92;61.77;99967.91;6928132;28;20223;-85
2021/12/14 15:54:54;;;;;;;22.43;13.80;;;;;;;11.38;60.73;99977.66;6925313;28;20652;-85
2021/12/14 15:58:26;;;;;;;21.53;14.20;;;;;;;11.25;60.68;99978.28;6923778;28;20206;-85
2021/12/14 16:01:53;;;;;;;19.67;14.70;;;;;;;11.51;60.34;99988.69;6926965;28;20238;-86
2021/12/14 16:05:19;;;;;;;16.97;13.27;;;;;;;11.56;59.59;99987.13;6926059;28;20578;-83
2021/12/14 16:08:42;;;;;;;20.43;14.43;;;;;;;11.26;60.12;99971.84;6925655;28;20957;-85
2021/12/14 16:15:55;;;;;;;22.87;17.37;;;;;;;11.74;59.45;100000.34;6915551;28;20218;-86
2021/12/14 16:19:20;;;;;;;23.37;15.60;;;;;;;11.59;59.16;99986.78;6872435;28;20222;-86
2021/12/14 16:23:17;;;;;;;22.80;15.63;;;;;;;11.71;59.08;99996.13;6916360;28;20253;-87
2021/12/14 16:26:38;;;;;;;22.87;15.00;;;;;;;11.12;59.37;99926.75;6923603;28;20207;-87
2021/12/14 16:30:03;;;;;;;27.20;16.00;;;;;;;11.68;59.26;99993.78;6929387;28;20257;-84
2021/12/14 16:33:28;;;;;;;28.73;17.17;;;;;;;11.74;59.16;99979.53;6925995;28;20228;-80
2021/12/14 16:36:52;;;;;;;25.03;16.07;;;;;;;11.76;59.36;99996.41;6924990;28;20215;-84
2021/12/14 16:40:16;;;;;;;25.73;17.50;;;;;;;11.65;59.44;100009.53;6931836;28;20235;-87
2021/12/14 16:43:39;;;;;;;25.37;18.17;;;;;;;11.20;60.17;99967.19;6929211;28;20234;-86
2021/12/14 16:47:06;;;;;;;26.20;16.93;;;;;;;11.34;60.36;99996.06;6925921;28;20216;-84
2021/12/14 16:50:36;;;;;;;20.47;15.33;;;;;;;11.47;59.71;99985.53;6928650;28;20644;-84
2021/12/14 16:54:01;;;;;;;26.03;16.50;;;;;;;11.55;59.58;99982.75;6926041;28;20209;-82
2021/12/14 16:57:25;;;;;;;23.53;15.97;;;;;;;11.56;59.63;99992.53;6918759;28;20202;-84
2021/12/14 17:00:52;;;;;;;21.93;15.37;;;;;;;11.54;59.40;99981.06;6928577;28;20220;-84
2021/12/14 17:04:15;;;;;;;24.73;18.63;;;;;;;11.41;59.14;99980.00;6902804;28;20200;-85
2021/12/14 17:07:39;;;;;;;18.40;14.63;;;;;;;11.04;60.47;100001.56;6911089;28;20227;-87
2021/12/14 17:11:05;;;;;;;19.60;14.23;;;;;;;10.59;62.14;100023.91;6907405;28;20230;-84
2021/12/14 17:14:30;;;;;;;19.13;15.10;;;;;;;11.47;60.34;100012.53;6925466;28;20714;-88
2021/12/14 17:17:52;;;;;;;26.07;19.53;;;;;;;11.54;59.81;100021.59;6917791;28;20215;-87
2021/12/14 17:21:48;;;;;;;18.50;14.93;;;;;;;11.62;59.95;100023.41;6915321;28;20234;-86
2021/12/14 17:25:25;;;;;;;21.03;14.10;;;;;;;11.22;60.41;100026.41;6915448;28;20222;-86
2021/12/14 17:28:50;;;;;;;19.37;15.20;;;;;;;11.46;59.95;100012.72;6914392;28;20297;-85
2021/12/14 17:32:17;;;;;;;18.40;14.43;;;;;;;11.62;59.80;100013.44;6928789;28;20255;-84
2021/12/14 17:35:39;;;;;;;19.30;14.97;;;;;;;11.64;59.52;100018.66;6921673;28;20227;-85
2021/12/14 17:39:12;;;;;;;21.83;19.50;;;;;;;11.39;59.56;100015.28;6928529;28;20605;-84
2021/12/14 17:42:38;;;;;;;24.90;17.73;;;;;;;11.56;59.23;100018.72;6930232;28;20224;-85
2021/12/14 17:46:01;;;;;;;43.27;35.97;;;;;;;11.56;59.31;100006.03;6922765;28;20211;-86
2021/12/14 17:49:23;;;;;;;32.17;25.33;;;;;;;11.26;58.85;99947.56;6911820;28;20683;-86
2021/12/14 17:52:49;;;;;;;23.17;18.37;;;;;;;11.57;59.19;100028.50;6933339;28;20238;-86
2021/12/14 17:56:17;;;;;;;24.73;20.07;;;;;;;11.58;59.36;100032.88;6953361;28;20218;-86
2021/12/14 17:59:40;;;;;;;20.63;15.20;;;;;;;11.48;59.47;100021.47;6939841;28;20226;-85
2021/12/14 18:03:09;;;;;;;19.30;14.83;;;;;;;11.56;59.07;100024.09;6927001;28;20592;-84
2021/12/14 18:06:33;;;;;;;20.30;16.13;;;;;;;11.71;59.03;100022.31;6926572;28;20213;-85
2021/12/14 18:09:56;;;;;;;22.87;16.20;;;;;;;11.68;59.16;100037.00;6927001;28;20560;-86
2021/12/14 18:13:29;;;;;;;21.00;15.80;;;;;;;11.60;59.42;100039.78;6928498;28;20233;-85
2021/12/14 18:21:04;;;;;;;22.57;15.60;;;;;;;11.71;59.31;100044.78;6931344;28;20231;-85
2021/12/14 18:24:28;;;;;;;21.53;16.17;;;;;;;11.73;58.56;100041.88;6922268;28;20213;-85
2021/12/14 18:27:50;;;;;;;23.53;16.50;;;;;;;11.62;58.96;100031.53;6919768;28;20207;-86
2021/12/14 18:31:13;;;;;;;25.23;17.00;;;;;;;11.64;59.39;100049.19;6922261;28;20241;-88
2021/12/14 18:34:36;;;;;;;23.50;17.07;;;;;;;11.74;59.15;100044.38;6918747;28;20211;-86
2021/12/14 18:38:05;;;;;;;25.47;15.20;;;;;;;11.68;59.07;100044.31;6921425;28;20238;-84
2021/12/14 18:41:27;;;;;;;23.27;16.53;;;;;;;11.92;58.60;100035.97;6921432;28;20369;-87
2021/12/14 18:44:54;;;;;;;21.93;15.27;;;;;;;11.84;58.64;100042.28;6923259;28;20234;-85
2021/12/14 18:51:57;;;;;;;20.13;16.17;;;;;;;12.01;57.79;100040.25;6921276;28;20223;-86
2021/12/14 18:55:46;;;;;;;20.43;15.63;;;;;;;12.06;57.49;100027.03;6923929;28;20202;-86
2021/12/14 18:59:19;;;;;;;25.27;17.13;;;;;;;12.18;57.00;100030.94;6916072;28;20741;-85
2021/12/14 19:02:41;;;;;;;24.93;17.53;;;;;;;11.60;57.34;99964.16;6921902;28;20230;-86
2021/12/14 19:06:08;;;;;;;21.43;15.30;;;;;;;12.19;57.21;100051.56;6921989;28;20203;-86
2021/12/14 19:09:34;;;;;;;22.97;16.13;;;;;;;12.11;57.72;100048.94;6926936;28;20216;-86
2021/12/14 19:12:58;;;;;;;19.73;16.60;;;;;;;12.28;56.82;100037.75;6928628;28;20223;-88
2021/12/14 19:16:22;;;;;;;21.03;15.80;;;;;;;12.00;56.83;100033.16;6927061;28;20210;-85
2021/12/14 19:19:49;;;;;;;22.03;15.47;;;;;;;11.48;57.47;99987.19;6924350;28;20226;-84
2021/12/14 19:24:00;;;;;;;20.40;15.40;;;;;;;11.47;59.27;100080.06;6931733;28;20655;-87
2021/12/14 19:27:29;;;;;;;22.77;16.53;;;;;;;11.22;59.78;100040.72;6918968;28;20262;-84
2021/12/14 19:30:53;;;;;;;24.90;17.93;;;;;;;11.52;59.56;100068.69;6925040;28;20770;-85
2021/12/14 19:34:16;;;;;;;23.67;16.80;;;;;;;12.10;57.69;100048.09;6923832;28;20770;-85
2021/12/14 19:42:27;;;;;;;24.53;16.37;;;;;;;11.99;58.04;100069.34;6890549;28;20252;-86
2021/12/14 19:46:47;;;;;;;28.27;19.07;;;;;;;12.03;58.08;100081.47;6888338;28;20218;-84
2021/12/14 19:50:16;;;;;;;22.03;16.07;;;;;;;11.85;57.90;100067.41;6907272;28;20495;-86
2021/12/14 19:53:41;;;;;;;24.27;16.40;;;;;;;12.10;57.62;100066.19;6930356;28;20262;-86
2021/12/14 20:06:57;;;;;;;;;;;;;;;;;;;;;
2021/12/14 20:14:48;;;;;;;26.70;18.30;;;;;;;11.97;58.19;100068.66;6905282;28;20214;-89
2021/12/14 20:18:15;;;;;;;26.53;18.73;;;;;;;11.90;58.37;100081.22;6925053;28;20557;-88
2021/12/14 20:21:40;;;;;;;26.80;19.30;;;;;;;11.35;59.12;100048.22;6923311;28;20266;-88
2021/12/14 20:25:02;;;;;;;28.30;19.37;;;;;;;11.27;59.99;100083.41;6923004;28;20207;-86
2021/12/14 20:28:28;;;;;;;30.13;20.27;;;;;;;11.41;60.25;100083.47;6921358;28;20211;-87
2021/12/14 20:31:51;;;;;;;29.80;20.40;;;;;;;11.65;60.14;100090.56;6922993;28;20607;-86
2021/12/14 20:35:21;;;;;;;26.90;20.50;;;;;;;11.85;59.01;100068.28;6926504;28;20559;-85
2021/12/14 20:38:56;;;;;;;30.60;24.13;;;;;;;11.97;58.59;100084.88;6928415;28;20198;-86
2021/12/14 20:42:56;;;;;;;27.73;19.57;;;;;;;11.89;58.11;100045.28;6927600;28;20227;-86
2021/12/14 20:47:01;;;;;;;26.97;19.20;;;;;;;12.16;57.53;100100.59;6930248;28;20214;-87
2021/12/14 20:51:21;;;;;;;25.40;18.73;;;;;;;11.97;57.92;100082.19;6934656;28;20217;-87
2021/12/14 20:54:58;;;;;;;30.67;20.20;;;;;;;12.05;58.50;100107.28;6906834;28;20221;-86
2021/12/14 20:58:49;;;;;;;26.70;18.00;;;;;;;11.99;58.71;100107.19;6933899;28;20206;-87
2021/12/14 21:03:09;;;;;;;23.97;17.63;;;;;;;11.86;58.96;100106.97;6919179;28;20235;-84
2021/12/14 21:11:27;;;;;;;28.83;19.97;;;;;;;11.92;59.40;100111.63;6922030;28;20256;-86
2021/12/14 21:15:14;;;;;;;33.37;27.13;;;;;;;11.85;59.61;100098.00;6930895;28;20209;-86
2021/12/14 21:18:39;;;;;;;29.70;21.40;;;;;;;11.23;59.58;99996.50;6904584;28;20200;-87
2021/12/14 21:22:19;;;;;;;31.50;19.37;;;;;;;11.50;60.58;100100.44;6919771;28;20290;-89
2021/12/14 21:25:44;;;;;;;31.00;19.37;;;;;;;11.78;60.08;100115.97;6914861;28;20298;-88
2021/12/14 21:29:10;;;;;;;33.30;19.77;;;;;;;11.72;59.93;100100.47;6937781;28;20292;-87
2021/12/14 21:32:37;;;;;;;36.00;20.33;;;;;;;11.74;59.84;100087.63;6949488;28;20710;-85
2021/12/14 21:36:01;;;;;;;32.57;21.03;;;;;;;11.67;60.46;100104.72;6923879;28;20202;-85
2021/12/14 21:39:25;;;;;;;33.40;22.20;;;;;;;11.83;60.11;100126.22;6923745;28;20253;-85
2021/12/14 21:42:51;;;;;;;35.30;22.97;;;;;;;11.60;60.92;100119.97;6923584;28;20234;-87
2021/12/14 21:46:28;;;;;;;38.60;22.40;;;;;;;11.55;60.92;100092.63;6927479;28;20208;-85
2021/12/14 21:49:52;;;;;;;40.87;24.77;;;;;;;11.14;60.98;100029.97;6924583;28;20206;-85
2021/12/14 21:53:18;;;;;;;35.70;22.73;;;;;;;11.85;60.58;100126.88;6928579;28;20235;-87
2021/12/14 21:56:46;;;;;;;37.83;24.67;;;;;;;11.69;60.33;100094.59;6927735;28;20197;-87
